Time;durP1;ratioP1;P1;durP2;ratioP2;P2;SDS_P1;SDS_P2;PMS_P1;PMS_P2;Temp;Humidity;BMP_temperature;BMP_pressure;BME280_temperature;BME280_humidity;BME280_pressure;Samples;Min_cycle;Max_cycle;Signal;HPM_P1;HPM_P2
2023/04/26 00:02:38;;;;;;;5.63;3.90;;;;;;;6.60;76.76;97468.22;6072545;29;20316;-50
2023/04/26 00:05:41;;;;;;;4.67;4.23;;;;;;;6.56;77.05;97467.03;6071316;29;20244;-52
2023/04/26 00:08:43;;;;;;;5.50;4.77;;;;;;;6.62;76.27;97458.19;6070167;29;20242;-52
2023/04/26 00:11:46;;;;;;;5.33;4.33;;;;;;;6.54;77.33;97468.25;6072197;29;20275;-52
2023/04/26 00:14:48;;;;;;;7.53;4.60;;;;;;;6.61;76.11;97463.72;6055197;29;20375;-47
2023/04/26 00:17:50;;;;;;;5.30;4.70;;;;;;;6.55;75.88;97462.78;6060514;29;20242;-49
2023/04/26 00:20:52;;;;;;;4.30;3.90;;;;;;;6.43;76.50;97467.97;6067447;29;20249;-47
2023/04/26 00:23:55;;;;;;;9.47;5.53;;;;;;;6.46;76.03;97469.38;6074096;29;20272;-48
2023/04/26 00:26:57;;;;;;;5.27;4.80;;;;;;;6.48;75.71;97467.31;6072779;29;20705;-48
2023/04/26 00:29:59;;;;;;;5.03;4.50;;;;;;;6.49;75.48;97466.28;6073116;29;20277;-47
2023/04/26 00:33:02;;;;;;;5.80;5.10;;;;;;;6.67;74.71;97462.81;6069430;29;20754;-45
2023/04/26 00:36:05;;;;;;;5.33;4.43;;;;;;;6.46;75.41;97464.91;6056116;29;20227;-47
2023/04/26 00:39:08;;;;;;;10.93;4.80;;;;;;;6.51;75.33;97469.53;6054791;29;20239;-47
2023/04/26 00:42:10;;;;;;;5.07;4.47;;;;;;;6.35;75.42;97454.22;6071615;29;20236;-48
2023/04/26 00:45:12;;;;;;;5.60;4.80;;;;;;;6.38;75.83;97467.03;6071128;29;20221;-48
2023/04/26 00:48:15;;;;;;;5.33;4.67;;;;;;;6.38;75.45;97475.75;6069035;29;20234;-48
2023/04/26 00:51:17;;;;;;;5.33;4.47;;;;;;;6.38;76.27;97477.59;6055287;29;20310;-48
2023/04/26 00:54:20;;;;;;;7.00;4.77;;;;;;;6.37;75.80;97484.72;6055821;29;20229;-47
2023/04/26 00:57:22;;;;;;;6.03;4.40;;;;;;;6.36;76.19;97483.13;6072366;29;20234;-47
2023/04/26 01:04:59;;;;;;;4.83;4.07;;;;;;;6.35;75.85;97486.78;6075985;29;20648;-47
2023/04/26 01:08:03;;;;;;;5.40;4.37;;;;;;;6.35;74.27;97480.66;6075286;29;20255;-47
2023/04/26 01:11:06;;;;;;;5.57;4.40;;;;;;;6.33;74.00;97470.31;6074292;29;20248;-49
2023/04/26 01:14:10;;;;;;;5.00;4.50;;;;;;;6.25;73.99;97469.78;6059504;29;20251;-48
2023/04/26 01:17:12;;;;;;;5.20;4.07;;;;;;;6.12;74.41;97484.78;6076702;29;20238;-48
2023/04/26 01:20:15;;;;;;;5.90;4.40;;;;;;;6.07;73.70;97479.34;6077073;29;20355;-48
2023/04/26 01:23:17;;;;;;;4.23;3.77;;;;;;;5.96;74.15;97488.00;6058427;29;20235;-48
2023/04/26 01:26:19;;;;;;;4.77;4.27;;;;;;;5.83;74.73;97501.28;6075513;29;20286;-47
2023/04/26 01:29:23;;;;;;;4.40;4.00;;;;;;;5.75;75.11;97502.34;6056599;29;20285;-48
2023/04/26 01:32:25;;;;;;;7.20;4.30;;;;;;;5.63;75.79;97504.88;6075475;29;20861;-49
2023/04/26 01:35:32;;;;;;;8.33;4.17;;;;;;;5.70;74.83;97508.25;6074693;29;20249;-47
2023/04/26 01:38:34;;;;;;;6.57;4.20;;;;;;;5.71;74.87;97514.34;6075306;29;20270;-51
2023/04/26 01:41:37;;;;;;;5.47;4.30;;;;;;;5.76;74.79;97519.81;6075046;29;20244;-49
2023/04/26 01:44:39;;;;;;;5.90;4.20;;;;;;;5.73;74.56;97517.59;6058265;29;20334;-47
2023/04/26 01:47:41;;;;;;;4.70;3.97;;;;;;;5.76;74.55;97516.34;6079062;29;20236;-48
2023/04/26 01:50:43;;;;;;;4.43;3.73;;;;;;;5.76;75.21;97508.44;6057382;29;20249;-47
2023/04/26 01:53:47;;;;;;;5.13;4.20;;;;;;;5.77;74.67;97512.72;6058042;29;20270;-48
2023/04/26 01:56:50;;;;;;;5.77;3.60;;;;;;;5.74;74.90;97510.50;6074040;29;20581;-48
2023/04/26 01:59:53;;;;;;;5.07;3.90;;;;;;;5.74;74.77;97518.41;6058168;29;20248;-47
2023/04/26 02:02:56;;;;;;;7.20;3.77;;;;;;;5.78;72.48;97511.69;6074125;29;20250;-47
2023/04/26 02:05:58;;;;;;;4.03;3.53;;;;;;;5.73;70.43;97488.53;6057817;29;20235;-46
2023/04/26 02:09:05;;;;;;;6.43;3.63;;;;;;;5.75;71.05;97510.25;6056196;29;20702;-47
2023/04/26 02:12:07;;;;;;;4.10;3.17;;;;;;;5.64;71.52;97514.41;6073149;29;20777;-47
2023/04/26 02:15:10;;;;;;;4.83;3.37;;;;;;;5.44;72.49;97511.91;6057183;29;20304;-49
2023/04/26 02:18:12;;;;;;;5.53;3.43;;;;;;;5.32;73.12;97507.50;6058511;29;20261;-47
2023/04/26 02:21:18;;;;;;;5.90;3.80;;;;;;;5.20;73.30;97509.22;6058044;29;20221;-50
2023/04/26 02:24:22;;;;;;;5.77;3.40;;;;;;;4.99;73.66;97497.13;6057513;29;25002;-47
2023/04/26 02:27:24;;;;;;;7.67;4.03;;;;;;;5.02;72.94;97515.97;6061094;29;20234;-49
2023/04/26 02:30:29;;;;;;;6.10;3.00;;;;;;;4.90;73.78;97520.31;6074553;29;20234;-49
2023/04/26 02:33:31;;;;;;;5.47;3.57;;;;;;;4.75;74.54;97519.75;6074182;29;20609;-49
2023/04/26 02:36:34;;;;;;;3.57;2.87;;;;;;;4.63;75.03;97506.38;6077876;29;20232;-48
2023/04/26 02:39:36;;;;;;;8.00;3.17;;;;;;;4.48;75.89;97519.81;6057988;29;20332;-47
2023/04/26 02:42:39;;;;;;;6.70;3.60;;;;;;;4.34;76.63;97520.91;6081604;29;20239;-51
2023/04/26 02:45:42;;;;;;;4.23;2.80;;;;;;;4.22;76.85;97517.25;6077943;29;20221;-48
2023/04/26 02:48:46;;;;;;;7.10;3.17;;;;;;;4.14;77.28;97511.19;6057122;29;20804;-48
2023/04/26 02:51:48;;;;;;;9.20;4.13;;;;;;;4.02;78.24;97518.06;6056903;29;20244;-50
2023/04/26 02:54:50;;;;;;;4.07;3.30;;;;;;;3.97;78.56;97520.50;6057721;29;20280;-47
2023/04/26 02:57:53;;;;;;;5.20;3.20;;;;;;;3.88;78.19;97514.63;6063770;29;20317;-50
2023/04/26 03:00:57;;;;;;;7.93;3.37;;;;;;;4.07;75.76;97520.09;6056832;29;20728;-47
2023/04/26 03:04:02;;;;;;;4.37;3.40;;;;;;;3.84;76.47;97480.97;6063755;29;20237;-49
2023/04/26 03:07:07;;;;;;;4.63;3.23;;;;;;;3.95;76.73;97516.47;6056731;29;20579;-48
2023/04/26 03:10:10;;;;;;;3.20;2.90;;;;;;;3.87;77.20;97520.91;6057249;29;20265;-49
2023/04/26 03:13:13;;;;;;;6.40;3.13;;;;;;;3.81;78.21;97518.28;6055984;29;20254;-51
2023/04/26 03:16:19;;;;;;;5.70;3.30;;;;;;;3.66;78.29;97518.50;6059011;29;20252;-48
2023/04/26 03:19:21;;;;;;;5.70;3.00;;;;;;;3.58;78.73;97523.94;6057150;29;20656;-47
2023/04/26 03:22:23;;;;;;;5.23;3.50;;;;;;;3.56;78.17;97523.34;6056248;29;20240;-48
2023/04/26 03:25:26;;;;;;;7.70;3.40;;;;;;;3.56;77.86;97524.16;6062848;29;20319;-48
2023/04/26 03:28:28;;;;;;;5.13;3.20;;;;;;;3.62;76.97;97530.44;6055507;29;20232;-48
2023/04/26 03:31:30;;;;;;;6.17;3.30;;;;;;;3.62;77.84;97525.97;6071753;29;20250;-49
2023/04/26 03:34:33;;;;;;;4.20;3.23;;;;;;;3.59;77.82;97528.19;6073215;29;20876;-51
2023/04/26 03:37:38;;;;;;;6.73;3.37;;;;;;;3.56;78.07;97523.34;6071405;29;20600;-48
2023/04/26 03:40:43;;;;;;;8.80;3.10;;;;;;;3.57;76.23;97538.94;6063085;29;20722;-48
2023/04/26 03:43:45;;;;;;;6.03;3.23;;;;;;;3.77;74.73;97538.97;6056394;29;20732;-49
2023/04/26 03:46:47;;;;;;;5.37;2.90;;;;;;;3.97;71.90;97552.13;6058398;29;20606;-47
2023/04/26 03:49:49;;;;;;;7.03;3.00;;;;;;;4.35;69.28;97540.97;6055472;29;20734;-47
2023/04/26 03:52:51;;;;;;;11.93;3.57;;;;;;;4.53;68.20;97540.31;6073709;29;20232;-48
2023/04/26 03:55:54;;;;;;;7.20;3.17;;;;;;;4.59;66.72;97544.78;6055143;29;20235;-51
2023/04/26 03:58:56;;;;;;;6.23;3.10;;;;;;;4.60;67.17;97539.28;6055791;29;20242;-49
2023/04/26 04:02:00;;;;;;;9.93;3.40;;;;;;;4.50;67.11;97543.38;6054908;29;20244;-50
2023/04/26 04:05:03;;;;;;;3.97;2.60;;;;;;;4.48;68.39;97558.59;6059258;29;20232;-49
2023/04/26 04:08:05;;;;;;;9.87;3.17;;;;;;;4.36;69.22;97551.31;6072621;29;20232;-48
2023/04/26 04:11:09;;;;;;;6.03;2.83;;;;;;;4.26;70.60;97558.00;6055821;29;20248;-50
2023/04/26 04:14:12;;;;;;;6.07;2.37;;;;;;;4.17;71.57;97567.94;6055113;29;20253;-49
2023/04/26 04:17:15;;;;;;;4.07;2.43;;;;;;;4.07;71.46;97563.09;6062853;29;20241;-52
2023/04/26 04:20:20;;;;;;;4.90;2.83;;;;;;;4.01;72.76;97576.28;6069591;29;20232;-51
2023/04/26 04:23:22;;;;;;;7.43;2.67;;;;;;;3.97;73.21;97572.41;6055173;29;20241;-50
2023/04/26 04:26:24;;;;;;;4.47;2.90;;;;;;;3.95;71.36;97580.53;6071731;29;20255;-51
2023/04/26 04:29:26;;;;;;;7.70;2.97;;;;;;;4.28;68.89;97574.44;6069785;29;20232;-51
2023/04/26 04:32:31;;;;;;;7.77;3.23;;;;;;;4.20;70.10;97569.38;6067602;29;20239;-52
2023/04/26 04:35:34;;;;;;;3.97;2.63;;;;;;;4.14;71.69;97589.47;6055330;29;20239;-47
2023/04/26 04:38:39;;;;;;;8.00;2.97;;;;;;;4.06;72.53;97584.38;6059169;29;20737;-46
2023/04/26 04:41:48;;;;;;;7.53;2.83;;;;;;;4.10;71.94;97589.06;6066929;29;20746;-47
2023/04/26 04:44:53;;;;;;;6.80;2.90;;;;;;;4.10;73.18;97583.78;6059994;29;20707;-48
2023/04/26 04:47:56;;;;;;;6.90;3.07;;;;;;;4.14;72.80;97589.47;6067229;29;20381;-46
2023/04/26 04:51:01;;;;;;;6.10;3.17;;;;;;;4.19;72.75;97589.66;6060195;29;20326;-47
2023/04/26 04:54:17;;;;;;;7.63;3.50;;;;;;;4.26;72.61;97590.47;6066748;29;20243;-47
2023/04/26 04:57:21;;;;;;;6.90;3.50;;;;;;;4.51;70.80;97598.56;6066832;29;20699;-48
2023/04/26 05:00:23;;;;;;;4.83;3.07;;;;;;;4.59;70.69;97587.00;6074017;29;20250;-47
2023/04/26 05:03:33;;;;;;;8.17;3.50;;;;;;;4.65;70.18;97589.59;6063773;29;20279;-50
2023/04/26 05:06:37;;;;;;;7.97;3.00;;;;;;;4.64;71.02;97597.75;6059279;29;20714;-48
2023/04/26 05:09:39;;;;;;;6.33;2.73;;;;;;;4.61;71.51;97609.50;6065502;29;20256;-48
2023/04/26 05:12:42;;;;;;;7.83;3.47;;;;;;;4.68;70.13;97598.94;6062890;29;20376;-48
2023/04/26 05:15:45;;;;;;;8.10;3.40;;;;;;;4.80;69.75;97597.28;6057569;29;20720;-49
2023/04/26 05:18:47;;;;;;;8.57;3.20;;;;;;;4.96;67.72;97606.59;6075922;29;20239;-47
2023/04/26 05:21:51;;;;;;;7.33;3.20;;;;;;;4.98;68.57;97607.19;6075233;29;20315;-48
2023/04/26 05:24:54;;;;;;;7.37;2.50;;;;;;;5.01;68.43;97604.13;6062144;29;20681;-47
2023/04/26 05:27:57;;;;;;;9.20;3.03;;;;;;;5.16;66.30;97614.44;6057807;29;20250;-47
2023/04/26 05:31:11;;;;;;;7.17;2.90;;;;;;;5.49;63.81;97609.03;6063395;29;20299;-48
2023/04/26 05:34:32;;;;;;;9.70;3.10;;;;;;;5.50;63.76;97618.56;6074526;29;20257;-49
2023/04/26 05:37:35;;;;;;;5.60;3.10;;;;;;;5.46;64.37;97624.47;6058377;29;20673;-47
2023/04/26 05:40:37;;;;;;;4.70;2.53;;;;;;;5.49;62.70;97638.09;6058459;29;20241;-51
2023/04/26 05:43:40;;;;;;;7.43;2.80;;;;;;;5.66;61.99;97630.47;6061053;29;20239;-48
2023/04/26 05:46:45;;;;;;;7.00;2.60;;;;;;;5.84;60.10;97625.28;6077874;29;20293;-47
2023/04/26 05:49:48;;;;;;;6.60;2.63;;;;;;;5.82;59.98;97640.56;6058482;29;20403;-48
2023/04/26 05:52:50;;;;;;;3.93;2.20;;;;;;;5.80;59.79;97634.66;6065800;29;20236;-48
2023/04/26 05:55:53;;;;;;;5.87;3.03;;;;;;;5.73;61.21;97648.94;6074543;29;20240;-47
2023/04/26 05:58:57;;;;;;;5.97;2.57;;;;;;;5.85;59.74;97649.88;6059316;29;20337;-48
2023/04/26 06:02:00;;;;;;;6.70;2.33;;;;;;;6.02;60.05;97650.25;6064987;29;20733;-50
2023/04/26 06:05:05;;;;;;;6.77;2.60;;;;;;;5.87;60.76;97655.78;6075343;29;20289;-47
2023/04/26 06:08:08;;;;;;;9.00;2.60;;;;;;;6.00;58.53;97658.38;6074935;29;20247;-48
2023/04/26 06:11:10;;;;;;;7.70;3.03;;;;;;;6.06;60.87;97657.53;6074729;29;20363;-48
2023/04/26 06:14:12;;;;;;;7.27;2.53;;;;;;;6.03;59.86;97670.38;6056801;29;20288;-47
2023/04/26 06:17:31;;;;;;;5.93;2.37;;;;;;;5.94;58.55;97630.94;6063901;29;20587;-46
2023/04/26 06:20:33;;;;;;;6.23;2.87;;;;;;;6.31;56.78;97678.72;6057019;29;20231;-49
2023/04/26 06:23:36;;;;;;;7.13;2.80;;;;;;;6.52;55.38;97676.75;6057515;29;20241;-48
2023/04/26 06:26:38;;;;;;;5.87;2.67;;;;;;;6.78;54.94;97673.06;6064394;29;20234;-48
2023/04/26 06:29:42;;;;;;;6.63;2.80;;;;;;;6.97;52.69;97677.38;6058441;29;20239;-48
2023/04/26 06:32:45;;;;;;;9.17;2.73;;;;;;;7.22;52.63;97678.13;6074285;29;20782;-49
2023/04/26 06:35:48;;;;;;;4.53;2.40;;;;;;;7.38;51.47;97675.91;6057504;29;20325;-48
2023/04/26 06:38:50;;;;;;;6.43;2.50;;;;;;;7.49;51.76;97676.00;6070058;29;20242;-48
2023/04/26 06:41:53;;;;;;;5.60;2.63;;;;;;;7.78;50.58;97692.16;6074439;29;20249;-49
2023/04/26 06:45:15;;;;;;;5.17;2.53;;;;;;;7.67;51.26;97687.59;6058345;29;20233;-48
2023/04/26 06:48:19;;;;;;;3.47;1.80;;;;;;;7.67;50.81;97692.91;6057564;29;20221;-51
2023/04/26 06:51:22;;;;;;;4.43;2.30;;;;;;;7.66;51.79;97689.44;6073291;29;20274;-49
2023/04/26 06:54:28;;;;;;;6.27;2.47;;;;;;;7.52;51.75;97698.59;6073271;29;20236;-48
2023/04/26 06:57:30;;;;;;;7.17;2.73;;;;;;;7.51;52.93;97694.31;6073115;29;20286;-49
2023/04/26 07:00:33;;;;;;;8.17;2.60;;;;;;;7.60;51.14;97692.19;6073273;29;20249;-51
2023/04/26 07:03:35;;;;;;;4.37;2.67;;;;;;;7.56;52.97;97697.13;6073238;29;20247;-49
2023/04/26 07:06:39;;;;;;;5.27;2.57;;;;;;;7.65;53.08;97700.28;6061392;29;20238;-49
2023/04/26 07:09:42;;;;;;;5.57;2.40;;;;;;;7.75;51.68;97692.63;6071840;29;20237;-48
2023/04/26 07:12:44;;;;;;;4.47;2.47;;;;;;;7.60;51.22;97706.25;6073440;29;20322;-48
2023/04/26 07:15:46;;;;;;;3.57;2.03;;;;;;;7.88;50.93;97696.94;6071923;29;20238;-50
2023/04/26 07:18:49;;;;;;;6.40;1.97;;;;;;;7.81;50.60;97702.31;6072640;29;20254;-49
2023/04/26 07:21:51;;;;;;;4.77;2.03;;;;;;;7.73;51.92;97702.63;6070417;29;20246;-48
2023/04/26 07:24:54;;;;;;;5.03;2.27;;;;;;;7.78;52.60;97701.94;6072897;29;20374;-49
2023/04/26 07:27:56;;;;;;;3.33;1.90;;;;;;;7.81;51.12;97709.47;6074074;29;20750;-50
2023/04/26 07:31:00;;;;;;;3.03;1.83;;;;;;;7.96;50.18;97704.59;6072526;29;20251;-50
2023/04/26 07:34:02;;;;;;;4.57;2.33;;;;;;;7.99;50.32;97712.09;6073123;29;20245;-52
2023/04/26 07:37:05;;;;;;;4.40;1.97;;;;;;;7.81;51.09;97712.13;6059861;29;20238;-48
2023/04/26 07:40:10;;;;;;;5.13;2.33;;;;;;;7.62;51.37;97712.13;6072698;29;20239;-48
2023/04/26 07:43:14;;;;;;;6.47;2.60;;;;;;;7.46;53.31;97715.38;6074178;29;20250;-48
2023/04/26 07:46:17;;;;;;;4.73;2.47;;;;;;;7.51;52.40;97718.19;6076776;29;20599;-48
2023/04/26 07:49:19;;;;;;;5.87;2.07;;;;;;;7.66;53.14;97717.81;6073095;29;20336;-50
2023/04/26 07:52:22;;;;;;;3.53;2.43;;;;;;;7.89;53.30;97683.47;6072597;29;20246;-50
2023/04/26 07:55:25;;;;;;;3.10;2.30;;;;;;;8.42;52.33;97714.59;6073102;29;20246;-48
2023/04/26 07:58:27;;;;;;;6.40;2.30;;;;;;;8.51;51.21;97717.72;6072995;29;20327;-50
2023/04/26 08:01:31;;;;;;;3.50;2.27;;;;;;;8.52;51.04;97722.81;6073087;29;20655;-51
2023/04/26 08:04:33;;;;;;;3.77;2.50;;;;;;;8.59;50.07;97708.63;6070836;29;20240;-49
2023/04/26 08:07:36;;;;;;;9.27;2.87;;;;;;;8.44;50.51;97717.81;6072872;29;20302;-49
2023/04/26 08:10:41;;;;;;;6.37;2.50;;;;;;;8.19;50.63;97714.50;6077069;29;20271;-50
2023/04/26 08:13:44;;;;;;;3.90;2.63;;;;;;;8.08;50.40;97696.66;6074490;29;20758;-48
2023/04/26 08:16:47;;;;;;;4.90;2.60;;;;;;;8.09;51.27;97698.31;6077928;29;20319;-51
2023/04/26 08:19:49;;;;;;;5.00;2.70;;;;;;;8.21;50.55;97693.81;6076696;29;20240;-48
2023/04/26 08:22:58;;;;;;;5.80;2.70;;;;;;;8.18;48.95;97689.81;6076184;29;20235;-52
2023/04/26 08:26:01;;;;;;;4.50;2.40;;;;;;;8.32;50.96;97697.56;6076928;29;20318;-51
2023/04/26 08:29:04;;;;;;;9.77;2.43;;;;;;;8.63;51.17;97684.03;6076809;29;20228;-52
2023/04/26 08:32:06;;;;;;;4.13;2.10;;;;;;;9.15;48.31;97686.00;6080242;29;20635;-52
2023/04/26 08:35:08;;;;;;;4.10;2.17;;;;;;;9.25;45.45;97705.66;6076505;29;20707;-50
2023/04/26 08:38:11;;;;;;;3.53;1.90;;;;;;;9.52;44.31;97702.50;6076556;29;20247;-52
2023/04/26 08:41:20;;;;;;;5.57;2.20;;;;;;;9.54;43.04;97700.41;6076241;29;20235;-52
2023/04/26 08:44:24;;;;;;;3.00;1.93;;;;;;;9.43;42.81;97690.63;6076245;29;20237;-47
2023/04/26 08:47:46;;;;;;;5.53;2.33;;;;;;;9.40;43.31;97709.69;6076227;29;20228;-48
2023/04/26 08:50:51;;;;;;;4.80;2.03;;;;;;;9.38;42.73;97706.47;6064513;29;20709;-47
2023/04/26 08:53:55;;;;;;;4.63;2.40;;;;;;;8.92;43.67;97703.59;6064625;29;20236;-48
2023/04/26 08:56:59;;;;;;;3.47;1.70;;;;;;;8.76;43.15;97715.69;6064261;29;20636;-48
2023/04/26 09:00:08;;;;;;;5.33;2.03;;;;;;;8.52;45.09;97717.50;6069626;29;20232;-47
2023/04/26 09:03:11;;;;;;;3.80;2.03;;;;;;;8.34;46.78;97703.47;6075766;29;20260;-48
2023/04/26 09:06:15;;;;;;;5.03;1.80;;;;;;;8.50;43.55;97729.38;6076340;29;20615;-50
2023/04/26 09:09:21;;;;;;;5.03;1.67;;;;;;;8.49;44.42;97725.91;6075473;29;20251;-48
2023/04/26 09:12:25;;;;;;;6.03;1.90;;;;;;;8.60;43.52;97712.91;6075655;29;20352;-49
2023/04/26 09:15:28;;;;;;;6.43;2.27;;;;;;;8.69;43.07;97714.19;6073217;29;20295;-48
2023/04/26 09:18:32;;;;;;;2.57;1.70;;;;;;;8.79;44.59;97712.56;6076714;29;20239;-47
2023/04/26 09:21:43;;;;;;;4.33;1.93;;;;;;;8.97;45.89;97706.38;6074730;29;20232;-49
2023/04/26 09:24:51;;;;;;;5.50;1.80;;;;;;;9.20;44.57;97697.56;6075965;29;20239;-48
2023/04/26 09:27:53;;;;;;;4.63;1.87;;;;;;;9.71;43.69;97695.19;6071454;29;20610;-48
2023/04/26 09:30:55;;;;;;;6.77;1.50;;;;;;;10.12;41.32;97696.78;6075298;29;20237;-47
2023/04/26 09:33:59;;;;;;;3.03;1.67;;;;;;;10.16;40.55;97692.59;6076459;29;20238;-47
2023/04/26 09:37:01;;;;;;;2.77;1.77;;;;;;;9.98;41.38;97706.88;6075435;29;20593;-49
2023/04/26 09:40:17;;;;;;;3.70;1.80;;;;;;;9.78;40.99;97696.66;6076074;29;20245;-50
2023/04/26 09:43:21;;;;;;;4.40;1.73;;;;;;;9.81;42.45;97690.06;6075187;29;20240;-48
2023/04/26 09:46:24;;;;;;;4.03;2.00;;;;;;;9.86;41.85;97690.16;6076074;29;20323;-46
2023/04/26 09:49:30;;;;;;;3.87;1.80;;;;;;;9.62;41.81;97676.13;6076083;29;20240;-48
2023/04/26 09:52:43;;;;;;;3.90;1.70;;;;;;;9.52;45.19;97691.88;6075231;29;20293;-47
2023/04/26 09:55:48;;;;;;;4.37;1.90;;;;;;;9.47;41.87;97689.91;6074671;29;20247;-48
2023/04/26 09:59:01;;;;;;;4.50;1.90;;;;;;;9.44;41.43;97693.03;6075223;29;20315;-49
2023/04/26 10:02:04;;;;;;;3.03;2.03;;;;;;;9.51;40.33;97680.44;6074495;29;20259;-48
2023/04/26 10:05:08;;;;;;;5.03;1.60;;;;;;;9.34;40.48;97695.47;6071005;29;20745;-48
2023/04/26 10:08:11;;;;;;;1.53;1.40;;;;;;;9.04;41.56;97684.97;6075389;29;20232;-48
2023/04/26 10:11:14;;;;;;;5.73;1.87;;;;;;;9.04;42.31;97690.28;6073949;29;20235;-47
2023/04/26 10:14:16;;;;;;;7.37;2.07;;;;;;;9.02;42.48;97692.38;6074596;29;20232;-48
2023/04/26 10:17:22;;;;;;;4.23;2.00;;;;;;;9.17;42.36;97694.59;6074895;29;20323;-48
2023/04/26 10:20:27;;;;;;;3.83;1.63;;;;;;;8.98;43.31;97684.06;6075404;29;20236;-47
2023/04/26 10:23:32;;;;;;;3.37;1.90;;;;;;;8.97;42.50;97685.09;6072707;29;20296;-51
2023/04/26 10:26:55;;;;;;;4.13;1.73;;;;;;;9.05;41.94;97684.75;6074158;29;20252;-48
2023/04/26 10:29:58;;;;;;;4.27;1.73;;;;;;;8.92;42.58;97684.19;6074098;29;20288;-51
2023/04/26 10:33:00;;;;;;;2.30;1.60;;;;;;;9.09;42.92;97679.78;6074509;29;20237;-48
2023/04/26 10:36:08;;;;;;;4.27;1.93;;;;;;;9.45;43.01;97668.06;6073556;29;20235;-48
2023/04/26 10:39:20;;;;;;;4.93;2.00;;;;;;;9.70;43.28;97681.06;6056730;29;20642;-47
2023/04/26 10:42:29;;;;;;;2.43;1.43;;;;;;;9.51;43.80;97680.44;6074070;29;20299;-49
2023/04/26 10:45:32;;;;;;;3.30;1.70;;;;;;;9.36;42.17;97703.22;6076036;29;20252;-47
2023/04/26 10:48:35;;;;;;;2.70;1.77;;;;;;;8.94;45.13;97680.25;6074259;29;20717;-47
2023/04/26 10:51:38;;;;;;;2.90;1.40;;;;;;;9.19;44.77;97679.19;6072653;29;20276;-48
2023/04/26 10:54:48;;;;;;;3.10;1.50;;;;;;;9.52;42.25;97654.66;6074214;29;20613;-48
2023/04/26 10:57:55;;;;;;;3.20;1.63;;;;;;;9.82;42.45;97676.50;6073075;29;20297;-49
2023/04/26 11:01:17;;;;;;;3.57;1.80;;;;;;;9.72;41.66;97665.69;6071925;29;20232;-49
2023/04/26 11:04:21;;;;;;;3.33;2.00;;;;;;;9.75;43.08;97665.22;6073437;29;20245;-50
2023/04/26 11:07:37;;;;;;;3.47;1.47;;;;;;;9.90;39.87;97666.53;6071236;29;20236;-49
2023/04/26 11:10:40;;;;;;;3.30;2.17;;;;;;;9.65;40.12;97661.53;6060276;29;20249;-48
2023/04/26 11:13:43;;;;;;;2.87;1.70;;;;;;;9.71;40.17;97648.09;6061427;29;20238;-49
2023/04/26 11:16:46;;;;;;;3.53;1.70;;;;;;;9.93;41.03;97650.91;6061713;29;20240;-51
2023/04/26 11:19:48;;;;;;;2.20;1.50;;;;;;;9.98;43.49;97660.84;6064149;29;20591;-48
2023/04/26 11:22:52;;;;;;;3.53;1.50;;;;;;;10.00;40.78;97656.06;6073132;29;20236;-48
2023/04/26 11:26:07;;;;;;;3.70;1.80;;;;;;;10.22;41.44;97661.53;6057162;29;20803;-48
2023/04/26 11:29:17;;;;;;;2.30;1.60;;;;;;;9.91;41.00;97681.47;6064642;29;20741;-48
2023/04/26 11:32:19;;;;;;;4.00;1.90;;;;;;;9.77;40.66;97678.28;6074500;29;20241;-49
2023/04/26 11:35:23;;;;;;;2.70;1.57;;;;;;;9.69;40.35;97675.97;6056645;29;20336;-49
2023/04/26 11:38:28;;;;;;;3.60;1.50;;;;;;;9.59;40.53;97673.91;6073171;29;20780;-50
2023/04/26 11:41:31;;;;;;;3.43;1.80;;;;;;;9.59;41.39;97683.75;6073621;29;20502;-48
2023/04/26 11:44:34;;;;;;;3.30;1.80;;;;;;;9.42;43.46;97689.81;6072821;29;20234;-49
2023/04/26 11:47:38;;;;;;;2.90;2.10;;;;;;;9.41;44.17;97682.03;6075109;29;20395;-49
2023/04/26 11:50:41;;;;;;;5.00;1.80;;;;;;;9.56;43.24;97677.88;6060245;29;20685;-49
2023/04/26 11:53:44;;;;;;;2.90;1.80;;;;;;;9.77;45.18;97672.94;6073722;29;20248;-51
2023/04/26 11:56:47;;;;;;;4.57;2.00;;;;;;;9.82;42.74;97673.06;6072227;29;20649;-49
2023/04/26 11:59:49;;;;;;;3.17;1.87;;;;;;;9.91;45.01;97662.84;6071675;29;20244;-52
2023/04/26 12:02:53;;;;;;;4.03;1.93;;;;;;;9.94;42.22;97665.81;6070313;29;20271;-50
2023/04/26 12:05:56;;;;;;;3.10;1.40;;;;;;;9.68;43.34;97675.16;6072060;29;20239;-51
2023/04/26 12:09:04;;;;;;;3.10;1.87;;;;;;;9.33;44.38;97688.53;6072216;29;20240;-47
2023/04/26 12:12:07;;;;;;;4.80;1.80;;;;;;;8.85;47.64;97692.25;6070982;29;20244;-49
2023/04/26 12:15:10;;;;;;;3.60;1.90;;;;;;;8.57;48.90;97689.44;6073387;29;20238;-48
2023/04/26 12:18:49;;;;;;;4.40;1.90;;;;;;;8.69;48.85;97671.69;6074352;29;20232;-48
2023/04/26 12:21:54;;;;;;;7.57;2.13;;;;;;;8.87;48.95;97679.56;6072034;29;20292;-50
2023/04/26 12:25:06;;;;;;;2.90;1.77;;;;;;;8.99;50.71;97688.34;6073069;29;20243;-49
2023/04/26 12:28:13;;;;;;;4.23;1.90;;;;;;;9.06;46.94;97690.88;6073190;29;20237;-48
2023/04/26 12:31:16;;;;;;;3.37;1.70;;;;;;;8.96;48.17;97702.06;6068254;29;20252;-49
2023/04/26 12:34:18;;;;;;;5.40;2.10;;;;;;;9.01;46.64;97696.06;6071566;29;20307;-52
2023/04/26 12:37:21;;;;;;;4.00;1.83;;;;;;;8.91;49.48;97701.16;6072958;29;20709;-49
2023/04/26 12:40:24;;;;;;;3.23;1.80;;;;;;;8.49;50.90;97674.66;6072420;29;20244;-51
2023/04/26 12:43:26;;;;;;;5.43;2.30;;;;;;;8.59;52.15;97700.66;6072375;29;20358;-52
2023/04/26 12:46:29;;;;;;;4.27;2.57;;;;;;;8.55;54.61;97699.50;6069734;29;20240;-50
2023/04/26 12:49:33;;;;;;;4.07;2.07;;;;;;;8.39;53.79;97687.69;6072590;29;20236;-52
2023/04/26 12:52:35;;;;;;;2.30;2.00;;;;;;;8.53;56.49;97691.75;6072036;29;20245;-52
2023/04/26 12:55:38;;;;;;;4.47;2.23;;;;;;;8.84;55.91;97685.31;6069102;29;20236;-50
2023/04/26 12:58:40;;;;;;;2.13;1.93;;;;;;;9.17;56.71;97674.13;6074162;29;20262;-52
2023/04/26 13:01:43;;;;;;;4.60;2.30;;;;;;;9.38;54.71;97675.34;6076801;29;20240;-51
2023/04/26 13:04:46;;;;;;;5.67;2.10;;;;;;;9.65;51.22;97680.94;6076048;29;20729;-52
2023/04/26 13:07:50;;;;;;;4.33;2.20;;;;;;;9.78;48.94;97674.56;6076910;29;20611;-52
2023/04/26 13:10:52;;;;;;;3.70;1.73;;;;;;;9.63;49.02;97677.72;6074912;29;20237;-51
2023/04/26 13:13:54;;;;;;;3.30;1.60;;;;;;;9.54;49.32;97668.50;6078343;29;20231;-49
2023/04/26 13:16:57;;;;;;;6.27;2.17;;;;;;;9.54;49.62;97677.28;6075732;29;20241;-47
2023/04/26 13:19:59;;;;;;;3.47;2.07;;;;;;;9.63;48.72;97691.03;6074649;29;20241;-47
2023/04/26 13:23:03;;;;;;;4.47;2.07;;;;;;;9.38;50.41;97685.19;6074506;29;20393;-47
2023/04/26 13:26:06;;;;;;;2.50;1.77;;;;;;;9.07;51.60;97659.81;6074952;29;20260;-48
2023/04/26 13:29:08;;;;;;;2.43;1.93;;;;;;;9.31;49.88;97693.31;6077283;29;20595;-48
2023/04/26 13:32:11;;;;;;;2.63;1.90;;;;;;;9.44;47.87;97684.25;6076626;29;20692;-48
2023/04/26 13:35:14;;;;;;;4.20;1.80;;;;;;;9.28;48.44;97673.28;6074059;29;20253;-49
2023/04/26 13:38:16;;;;;;;4.07;2.17;;;;;;;9.37;46.37;97689.69;6075439;29;20715;-47
2023/04/26 13:41:21;;;;;;;3.67;1.60;;;;;;;9.14;48.11;97695.84;6074561;29;20271;-50
2023/04/26 13:44:27;;;;;;;4.60;1.73;;;;;;;9.08;49.35;97707.41;6079223;29;20231;-47
2023/04/26 13:47:36;;;;;;;5.47;2.40;;;;;;;9.16;50.17;97687.63;6077128;29;20258;-48
2023/04/26 13:50:43;;;;;;;5.43;1.93;;;;;;;9.08;52.92;97694.13;6072239;29;20795;-49
2023/04/26 13:53:46;;;;;;;4.33;1.70;;;;;;;9.21;54.41;97698.38;6074544;29;20296;-48
2023/04/26 13:56:49;;;;;;;2.77;1.90;;;;;;;9.65;50.33;97683.63;6074550;29;20316;-50
2023/04/26 13:59:51;;;;;;;3.70;2.33;;;;;;;9.63;49.87;97672.41;6075216;29;20315;-48
2023/04/26 14:02:53;;;;;;;3.17;1.87;;;;;;;9.53;49.22;97606.53;6074782;29;20396;-48
2023/04/26 14:05:55;;;;;;;4.57;2.23;;;;;;;10.09;48.75;97681.25;6074932;29;20327;-48
2023/04/26 14:08:57;;;;;;;4.67;2.03;;;;;;;10.07;47.81;97670.06;6072397;29;20330;-49
2023/04/26 14:12:00;;;;;;;3.87;1.80;;;;;;;10.12;46.02;97667.50;6075777;29;20236;-47
2023/04/26 14:15:08;;;;;;;4.57;1.97;;;;;;;10.16;45.27;97671.28;6073256;29;20772;-48
2023/04/26 14:18:10;;;;;;;2.27;1.37;;;;;;;10.05;44.74;97669.50;6075149;29;20580;-49
2023/04/26 14:21:13;;;;;;;6.23;2.00;;;;;;;10.07;46.00;97675.38;6074760;29;20833;-47
2023/04/26 14:24:15;;;;;;;4.70;1.80;;;;;;;10.05;43.49;97664.97;6076873;29;20673;-48
2023/04/26 14:27:18;;;;;;;8.63;2.00;;;;;;;9.92;44.76;97665.25;6073779;29;20228;-49
2023/04/26 14:30:23;;;;;;;3.00;1.57;;;;;;;9.94;43.76;97668.47;6073869;29;20236;-49
2023/04/26 14:33:25;;;;;;;2.53;1.60;;;;;;;9.81;47.05;97664.25;6073781;29;20237;-47
2023/04/26 14:36:27;;;;;;;3.97;1.60;;;;;;;10.01;43.77;97679.00;6073905;29;20234;-49
2023/04/26 14:39:30;;;;;;;4.17;1.90;;;;;;;9.87;45.19;97677.66;6075454;29;20697;-48
2023/04/26 14:42:32;;;;;;;3.63;1.87;;;;;;;9.89;46.76;97672.91;6076362;29;20402;-48